Pagrindinis puslapis
METAR-TAF:

METAR-TAF

Oro uostai :

Honningsvåg, Norvegija

platuma: 71-01N, ilguma: 025-59E, Aukštis: 1 m

Dabartinis oras

Ataskaita buvo paskelbta 1 valandą ir 21 minutes, ne 03:50 UTC
Vėjas 27 kt iš Pietų
Temperatūra 1°C
Drėgmė 80%
Slėgis 1005 hPa
Matomumas: 6000 m
sniegas, lietus

METAR: ENHV 070350Z 17027KT 6000 -SHSNRA VV020 01/M02 Q1005

Laikas: 07:11 (05:11 UTC)


TAF: trūkstamas

Orai ataskaitas ir orų prognozės (METAR, TAF).

turimą stotys yra geltonos ir raudonos taškus žemėlapyje.

Perkelti pele per norėdami pamatyti stoties vardą.

Tada spustelėkite, norėdami matyti oro stebėjimo ir prognozės.

Norėdami pakeisti žemėlapį: spustelėkite ant žalios mygtukų su juodo kryžiaus žemyn,; žalią mygtuką su brūkšneliu, jei norite nutolinti; arba žalių rodyklių gretimoms žemėlapius.


METAR-TAF: